Airfield :
LOGIN :

Register | Disclaimer

   EN    FR    IT 

 










Legend :    VFR   Marginal VFR   IFR   Intensive IFR   Very Intensive IFR
Visi :
Ceiling :
>= 8 km
>= 3000ft
5 to 8 km
1000 to 3000 ft
1500m to 5 km
500 to 1000 ft
800 to 1500m
200 to 500 ft
< 800m
< 200 ft
Symbols :   Thunderstorms  Fog  Heavy snow  Heavy precipitations  Wind > 20 kt
SIGMETs :     Misc.  Thunderstorms  Icing  Turbulence  Mountain Waves  Volcanic Ashes






- Airport Elevation : 26 ft
- IATA code : GLA


EGPF - Glasgow

CURRENT METAR :
  • 121750Z AUTO 07009KT 9999 -RA OVC017 04/02 Q0975

EXPIRED METARs :
  • 121720Z AUTO 06010KT 9999 -RA OVC018 04/02 Q0975
  • 121650Z AUTO 06010KT 9999 OVC017 04/02 Q0976
  • 121620Z AUTO 06009KT 9999 OVC018 04/03 Q0976
  • 121550Z AUTO 07009KT 9999 OVC018 04/03 Q0977
  • 121520Z AUTO 07010KT 9999 OVC017 04/02 Q0978

TAF TAF EGPF
Valid from the 12 at 18:00 until the 13 at 18:00 UTC


121704Z 1218/1318 08007KT 9999 SCT015
TEMPO 1218/1303 6000 -RADZ BKN010
PROB30
TEMPO 1218/1302 BKN005
ATIS : +44 141 887 7449



MET'MAP, your aeronautical weather chart ! - Copyright ORBIFLY December 2007 - Disclaimer

ORBIFLY MET'MAP TEAM :

Programming & Development : Alexandra Zaïnal
Concept & original design : Baudouin d'Aumeries
Assistance for programming : Marc-Olivier Méhu
Technical & hardware support : Manuel Goepfert

Contact : metmap@orbifly.com




SOURCES & CREDITS :

   NOAA